Flugplatz Ansbach (ETEB)

Hier findest Du alle Informationen zum Flugplatz Ansbach (ETEB).

Informationen für Piloten zum Flugplatz Ansbach

Hier findest Du alle relevanten Informationen, die Du als Pilot benötigst, um Ansbach anzufliegen.

Flugplatz: Ansbach ICAO-Code: ETEB
Frequenz Turm: 122,100 Mhz GAFOR Gebiet: 55
Frequenz Ground: 122,100 Mhz Mogas: ja
Platzrunde: - Landegebühr: -
Platzhöhe: - Sunrise: 03:18 Uhr UTC
Pisten: 08/26 - 370 m x , ASPH Sunset: 19:26 Uhr UTC

Mitglieder, die in Ansbach fliegen

Flugwetter am Flugplatz Ansbach

Die METAR Information stammen aus EDDN (38.32 km entfernt).

METAR Code:
2020/07/02 15:50
EDDN 021550Z 26011KT 230V300 9999 FEW036 22/13 Q1012 NOSIG

Temperatur: 7,0 °C Niederschlag: - Wind: 3,4 kt
Temperatur (min.): 5,6 °C Luftdruck: 1022 hPa Windrichtung: 285 °
Temperatur (max.): 8,0 °C Luftfeuchtigkeit: 93 % Bewölkung: 1/8

Flugschulen am Flugplatz Ansbach

Am Flugplatz Ansbach gibt es leider keine Flugschule.

Benachbarte Flugplätze und Flugschulen

Es gibt 23 weitere Flugplätze in einem Umkreis von 50 km um den Flugplatz Ansbach.

Jetzt anmelden

Passwort vergessen

Umfrage Archiv

Wären Rettungsgeräte keine Pflicht mehr, würdet Ihr Euer UL trotzdem mit einem ausstatten?

Ja
82 %
Nein
18 %
Stimmen: 194 | Diskussion
Anzeige: Roland Aircraft
Statistik Alle Mitglieder

Aktuell sind 19 Besucher online.

Anzeige: VFR Sprechfunk Simulator


Anzeige: Pocket FMS